PDT,Max TemperatureF,Mean TemperatureF,Min TemperatureF,Max Dew PointF,MeanDew PointF,Min DewpointF,Max Humidity, Mean Humidity, Min Humidity, Max Sea Level PressureIn, Mean Sea Level PressureIn, Min Sea Level PressureIn, Max VisibilityMiles, Mean VisibilityMiles, Min VisibilityMiles, Max Wind SpeedMPH, Mean Wind SpeedMPH, Max Gust SpeedMPH,PrecipitationIn, CloudCover, Events, WindDirDegrees
2012-10-1,92,69,45,34,24,19,45,26,7,30.23,30.07,29.96,10,10,9,13,5,13,0.00,0,,312
2012-10-2,92,69,45,29,26,21,45,27,8,30.05,29.95,29.83,10,10,10,13,5,17,0.00,0,,301
2012-10-3,91,69,46,31,27,22,49,29,8,30.04,29.90,29.82,10,10,10,15,6,21,0.00,0,,280
2012-10-4,89,68,47,35,29,19,52,30,8,30.05,29.96,29.88,10,10,10,16,6,21,0.00,0,,326
2012-10-5,83,64,45,34,27,17,58,34,9,30.06,29.97,29.90,10,10,10,9,4,13,0.00,0,,333
2012-10-6,83,61,38,28,25,22,54,33,11,30.01,29.89,29.79,10,10,10,17,7,23,0.00,0,,271
2012-10-7,81,61,41,27,24,20,42,27,11,29.91,29.85,29.79,10,10,10,22,9,29,0.00,0,,191
2012-10-8,80,61,41,28,23,8,53,30,7,29.95,29.85,29.76,10,10,10,20,7,25,0.00,0,,276
2012-10-9,77,58,38,32,23,11,52,30,8,29.92,29.85,29.78,10,10,10,28,11,39,T,1,,174
2012-10-10,74,55,36,31,22,10,70,41,11,29.93,29.85,29.75,10,10,10,23,9,32,0.00,0,,171
2012-10-11,62,52,42,46,37,16,93,62,31,29.98,29.88,29.78,10,10,5,20,7,30,0.00,5,Rain,306
2012-10-12,68,56,43,44,41,37,89,62,34,30.17,29.98,29.89,10,10,10,13,4,17,T,3,,227
2012-10-13,77,58,39,43,35,24,96,56,15,30.29,30.18,30.09,10,10,10,12,5,15,0.00,0,,306
2012-10-14,78,58,37,36,32,28,76,46,16,30.27,30.17,30.08,10,10,10,10,5,16,0.00,0,,288
2012-10-15,82,61,40,36,30,18,76,43,9,30.17,30.04,29.92,10,10,10,9,3,10,0.00,0,,317
2012-10-16,84,62,39,34,30,26,67,40,13,30.10,29.94,29.79,10,10,10,14,6,20,0.00,0,,310
2012-10-17,81,64,46,32,28,24,42,28,13,30.13,29.99,29.90,10,10,7,14,6,18,0.00,0,,313
2012-10-18,82,60,38,30,25,20,59,35,10,30.24,30.08,29.99,10,10,10,14,6,18,0.00,0,,294
2012-10-19,82,59,36,30,26,20,70,40,10,30.10,29.98,29.85,10,10,10,17,6,22,0.00,0,,308
2012-10-20,82,60,37,37,28,22,59,35,11,29.92,29.74,29.60,10,10,10,20,7,24,0.00,0,,295
2012-10-21,76,57,38,36,29,21,73,43,13,29.82,29.68,29.62,10,10,10,14,5,17,0.00,0,,228
2012-10-22,63,52,41,38,28,11,65,43,21,29.75,29.68,29.61,10,10,10,24,7,26,T,2,Rain,346
2012-10-23,64,51,37,21,14,6,44,28,12,29.83,29.75,29.68,10,10,10,21,6,26,0.00,0,,356
2012-10-24,62,44,25,22,16,10,69,41,13,30.09,29.97,29.84,10,10,10,30,8,40,0.00,0,,339
2012-10-25,66,45,24,25,17,10,60,37,14,30.24,30.14,30.07,10,10,10,23,6,30,0.00,0,,337
2012-10-26,66,47,28,27,24,23,75,48,20,30.31,30.20,30.10,10,10,10,14,4,21,0.00,0,,320
2012-10-27,74,53,32,30,26,22,64,40,16,30.17,30.08,29.96,10,10,10,12,4,29,0.00,0,,341
2012-10-28,75,55,34,31,28,25,70,43,16,30.17,30.06,29.97,10,10,10,12,5,14,0.00,0,,320
2012-10-29,77,55,33,27,25,21,70,42,13,30.23,30.11,30.04,10,10,10,15,6,18,0.00,0,,310
2012-10-30,77,56,34,25,22,19,59,36,12,30.20,30.08,29.97,10,10,10,18,6,22,0.00,0,,322
2012-10-31,72,51,30,24,21,17,63,38,13,30.10,29.98,29.90,10,10,10,17,5,22,0.00,0,,317